sensor_id;sensor_type;location;lat;lon;timestamp;temperature;humidity
21294;DHT22;10806;52.250;21.066;2022-08-19T00:01:20;26.70;78.20
21294;DHT22;10806;52.250;21.066;2022-08-19T00:03:45;26.70;78.20
21294;DHT22;10806;52.250;21.066;2022-08-19T00:06:11;26.70;78.20
21294;DHT22;10806;52.250;21.066;2022-08-19T00:08:37;26.70;78.30
21294;DHT22;10806;52.250;21.066;2022-08-19T00:11:02;26.70;78.20
21294;DHT22;10806;52.250;21.066;2022-08-19T00:13:28;26.70;78.20
21294;DHT22;10806;52.250;21.066;2022-08-19T00:15:54;26.70;78.30
21294;DHT22;10806;52.250;21.066;2022-08-19T00:18:20;26.70;78.20
21294;DHT22;10806;52.250;21.066;2022-08-19T00:20:46;26.70;78.20
21294;DHT22;10806;52.250;21.066;2022-08-19T00:23:11;26.70;78.20
21294;DHT22;10806;52.250;21.066;2022-08-19T00:25:37;26.70;78.20
21294;DHT22;10806;52.250;21.066;2022-08-19T00:28:03;26.70;78.20
21294;DHT22;10806;52.250;21.066;2022-08-19T00:30:30;26.70;78.20
21294;DHT22;10806;52.250;21.066;2022-08-19T00:32:57;26.70;78.30
21294;DHT22;10806;52.250;21.066;2022-08-19T00:35:23;26.70;78.30
21294;DHT22;10806;52.250;21.066;2022-08-19T00:37:49;26.70;78.30
21294;DHT22;10806;52.250;21.066;2022-08-19T00:40:16;26.70;78.30
21294;DHT22;10806;52.250;21.066;2022-08-19T00:42:42;26.70;78.20
21294;DHT22;10806;52.250;21.066;2022-08-19T00:45:12;26.70;78.20
21294;DHT22;10806;52.250;21.066;2022-08-19T00:47:39;26.70;78.20
21294;DHT22;10806;52.250;21.066;2022-08-19T00:50:05;26.70;78.20
21294;DHT22;10806;52.250;21.066;2022-08-19T00:52:38;26.70;78.00
21294;DHT22;10806;52.250;21.066;2022-08-19T00:55:07;26.70;78.20
21294;DHT22;10806;52.250;21.066;2022-08-19T00:57:38;26.70;78.00
21294;DHT22;10806;52.250;21.066;2022-08-19T01:00:08;26.80;78.10
21294;DHT22;10806;52.250;21.066;2022-08-19T01:02:37;26.70;77.80
21294;DHT22;10806;52.250;21.066;2022-08-19T01:05:08;26.70;77.90
21294;DHT22;10806;52.250;21.066;2022-08-19T01:07:35;26.80;78.00
21294;DHT22;10806;52.250;21.066;2022-08-19T01:10:03;26.70;77.90
21294;DHT22;10806;52.250;21.066;2022-08-19T01:12:29;26.70;77.90
21294;DHT22;10806;52.250;21.066;2022-08-19T01:14:55;26.70;77.90
21294;DHT22;10806;52.250;21.066;2022-08-19T01:17:21;26.70;77.80
21294;DHT22;10806;52.250;21.066;2022-08-19T01:19:48;26.70;77.80
21294;DHT22;10806;52.250;21.066;2022-08-19T01:22:20;26.70;77.70
21294;DHT22;10806;52.250;21.066;2022-08-19T01:24:46;26.70;77.90
21294;DHT22;10806;52.250;21.066;2022-08-19T01:27:12;26.70;77.90
21294;DHT22;10806;52.250;21.066;2022-08-19T01:29:40;26.70;77.80
21294;DHT22;10806;52.250;21.066;2022-08-19T01:32:07;26.70;77.90
21294;DHT22;10806;52.250;21.066;2022-08-19T01:34:34;26.70;78.00
21294;DHT22;10806;52.250;21.066;2022-08-19T01:37:00;26.70;77.90
21294;DHT22;10806;52.250;21.066;2022-08-19T01:39:27;26.70;77.90
21294;DHT22;10806;52.250;21.066;2022-08-19T01:41:53;26.70;77.90
21294;DHT22;10806;52.250;21.066;2022-08-19T01:44:22;26.70;77.80
21294;DHT22;10806;52.250;21.066;2022-08-19T01:46:50;26.70;77.80
21294;DHT22;10806;52.250;21.066;2022-08-19T01:49:18;26.70;77.70
21294;DHT22;10806;52.250;21.066;2022-08-19T01:51:45;26.70;77.70
21294;DHT22;10806;52.250;21.066;2022-08-19T01:54:12;26.70;77.50
21294;DHT22;10806;52.250;21.066;2022-08-19T01:56:38;26.70;77.50
21294;DHT22;10806;52.250;21.066;2022-08-19T01:59:10;26.70;77.50
21294;DHT22;10806;52.250;21.066;2022-08-19T02:01:37;26.70;77.50
21294;DHT22;10806;52.250;21.066;2022-08-19T02:04:02;26.70;77.50
21294;DHT22;10806;52.250;21.066;2022-08-19T02:06:29;26.70;77.50
21294;DHT22;10806;52.250;21.066;2022-08-19T02:08:55;26.70;77.40
21294;DHT22;10806;52.250;21.066;2022-08-19T02:11:27;26.70;77.30
21294;DHT22;10806;52.250;21.066;2022-08-19T02:13:54;26.70;77.30
21294;DHT22;10806;52.250;21.066;2022-08-19T02:16:21;26.70;77.30
21294;DHT22;10806;52.250;21.066;2022-08-19T02:18:47;26.70;77.20
21294;DHT22;10806;52.250;21.066;2022-08-19T02:21:21;26.70;77.20
21294;DHT22;10806;52.250;21.066;2022-08-19T02:23:48;26.70;77.10
21294;DHT22;10806;52.250;21.066;2022-08-19T02:26:13;26.70;77.10
21294;DHT22;10806;52.250;21.066;2022-08-19T02:28:40;26.70;77.10
21294;DHT22;10806;52.250;21.066;2022-08-19T02:31:15;26.70;77.10
21294;DHT22;10806;52.250;21.066;2022-08-19T02:33:41;26.70;76.90
21294;DHT22;10806;52.250;21.066;2022-08-19T02:36:08;26.70;77.00
21294;DHT22;10806;52.250;21.066;2022-08-19T02:38:34;26.70;77.10
21294;DHT22;10806;52.250;21.066;2022-08-19T02:41:33;26.70;77.00
21294;DHT22;10806;52.250;21.066;2022-08-19T02:43:59;26.70;77.00
21294;DHT22;10806;52.250;21.066;2022-08-19T02:46:29;26.70;76.90
21294;DHT22;10806;52.250;21.066;2022-08-19T02:48:58;26.70;76.90
21294;DHT22;10806;52.250;21.066;2022-08-19T02:51:32;26.70;77.00
21294;DHT22;10806;52.250;21.066;2022-08-19T02:53:58;26.70;76.80
21294;DHT22;10806;52.250;21.066;2022-08-19T02:56:25;26.70;76.80
21294;DHT22;10806;52.250;21.066;2022-08-19T02:58:53;26.70;76.80
21294;DHT22;10806;52.250;21.066;2022-08-19T03:01:22;26.70;76.80
21294;DHT22;10806;52.250;21.066;2022-08-19T03:03:48;26.70;76.70
21294;DHT22;10806;52.250;21.066;2022-08-19T03:06:15;26.70;76.70
21294;DHT22;10806;52.250;21.066;2022-08-19T03:08:43;26.70;76.70
21294;DHT22;10806;52.250;21.066;2022-08-19T03:11:21;26.70;76.70
21294;DHT22;10806;52.250;21.066;2022-08-19T03:13:48;26.70;76.70
21294;DHT22;10806;52.250;21.066;2022-08-19T03:16:22;26.70;76.50
21294;DHT22;10806;52.250;21.066;2022-08-19T03:18:48;26.70;76.50
21294;DHT22;10806;52.250;21.066;2022-08-19T03:21:18;26.70;76.60
21294;DHT22;10806;52.250;21.066;2022-08-19T03:23:45;26.70;76.40
21294;DHT22;10806;52.250;21.066;2022-08-19T03:26:10;26.70;76.50
21294;DHT22;10806;52.250;21.066;2022-08-19T03:28:36;26.60;76.50
21294;DHT22;10806;52.250;21.066;2022-08-19T03:31:11;26.60;76.50
21294;DHT22;10806;52.250;21.066;2022-08-19T03:33:38;26.70;76.40
21294;DHT22;10806;52.250;21.066;2022-08-19T03:36:13;26.70;76.30
21294;DHT22;10806;52.250;21.066;2022-08-19T03:38:45;26.70;76.30
21294;DHT22;10806;52.250;21.066;2022-08-19T03:44:05;26.70;76.90
21294;DHT22;10806;52.250;21.066;2022-08-19T03:46:33;26.70;76.30
21294;DHT22;10806;52.250;21.066;2022-08-19T03:49:00;26.70;76.30
21294;DHT22;10806;52.250;21.066;2022-08-19T03:51:33;26.70;76.30
21294;DHT22;10806;52.250;21.066;2022-08-19T03:54:01;26.70;76.20
21294;DHT22;10806;52.250;21.066;2022-08-19T03:56:28;26.60;76.10
21294;DHT22;10806;52.250;21.066;2022-08-19T03:58:56;26.70;76.10
21294;DHT22;10806;52.250;21.066;2022-08-19T04:01:24;26.70;76.10
21294;DHT22;10806;52.250;21.066;2022-08-19T04:03:51;26.70;76.10
21294;DHT22;10806;52.250;21.066;2022-08-19T04:06:19;26.60;76.00
21294;DHT22;10806;52.250;21.066;2022-08-19T04:08:48;26.70;76.10
21294;DHT22;10806;52.250;21.066;2022-08-19T04:11:18;26.70;76.10
21294;DHT22;10806;52.250;21.066;2022-08-19T04:13:45;26.60;76.00
21294;DHT22;10806;52.250;21.066;2022-08-19T04:16:11;26.70;75.80
21294;DHT22;10806;52.250;21.066;2022-08-19T04:18:38;26.70;76.00
21294;DHT22;10806;52.250;21.066;2022-08-19T04:21:04;26.70;75.80
21294;DHT22;10806;52.250;21.066;2022-08-19T04:23:30;26.70;75.80
21294;DHT22;10806;52.250;21.066;2022-08-19T04:25:56;26.70;75.90
21294;DHT22;10806;52.250;21.066;2022-08-19T04:28:25;26.60;75.80
21294;DHT22;10806;52.250;21.066;2022-08-19T04:30:53;26.70;75.80
21294;DHT22;10806;52.250;21.066;2022-08-19T04:33:21;26.70;75.90
21294;DHT22;10806;52.250;21.066;2022-08-19T04:35:48;26.60;75.80
21294;DHT22;10806;52.250;21.066;2022-08-19T04:38:18;26.60;75.80
21294;DHT22;10806;52.250;21.066;2022-08-19T04:40:48;26.60;75.80
21294;DHT22;10806;52.250;21.066;2022-08-19T04:43:33;26.70;75.80
21294;DHT22;10806;52.250;21.066;2022-08-19T04:46:10;26.60;75.80
21294;DHT22;10806;52.250;21.066;2022-08-19T04:48:37;26.70;75.80
21294;DHT22;10806;52.250;21.066;2022-08-19T04:51:08;26.70;75.80
21294;DHT22;10806;52.250;21.066;2022-08-19T04:53:35;26.70;75.60
21294;DHT22;10806;52.250;21.066;2022-08-19T04:56:05;26.70;76.40
21294;DHT22;10806;52.250;21.066;2022-08-19T04:58:32;26.70;75.60
21294;DHT22;10806;52.250;21.066;2022-08-19T05:00:58;26.70;75.60
21294;DHT22;10806;52.250;21.066;2022-08-19T05:03:25;26.70;75.60
21294;DHT22;10806;52.250;21.066;2022-08-19T05:05:52;26.70;75.50
21294;DHT22;10806;52.250;21.066;2022-08-19T05:08:20;26.70;75.50
21294;DHT22;10806;52.250;21.066;2022-08-19T05:10:50;26.70;75.40
21294;DHT22;10806;52.250;21.066;2022-08-19T05:13:18;26.70;75.40
21294;DHT22;10806;52.250;21.066;2022-08-19T05:15:45;26.70;75.50
21294;DHT22;10806;52.250;21.066;2022-08-19T05:18:18;26.70;75.40
21294;DHT22;10806;52.250;21.066;2022-08-19T05:21:10;26.70;75.40
21294;DHT22;10806;52.250;21.066;2022-08-19T05:23:54;26.60;75.40
21294;DHT22;10806;52.250;21.066;2022-08-19T05:26:20;26.70;75.30
21294;DHT22;10806;52.250;21.066;2022-08-19T05:28:46;26.70;75.40
21294;DHT22;10806;52.250;21.066;2022-08-19T05:31:11;26.70;75.40
21294;DHT22;10806;52.250;21.066;2022-08-19T05:33:38;26.70;75.40
21294;DHT22;10806;52.250;21.066;2022-08-19T05:36:05;26.70;75.40
21294;DHT22;10806;52.250;21.066;2022-08-19T05:38:31;26.70;75.40
21294;DHT22;10806;52.250;21.066;2022-08-19T05:40:56;26.70;75.40
21294;DHT22;10806;52.250;21.066;2022-08-19T05:43:22;26.70;75.40
21294;DHT22;10806;52.250;21.066;2022-08-19T05:45:47;26.70;75.40
21294;DHT22;10806;52.250;21.066;2022-08-19T05:48:14;26.70;75.40
21294;DHT22;10806;52.250;21.066;2022-08-19T05:50:41;26.70;75.40
21294;DHT22;10806;52.250;21.066;2022-08-19T05:53:07;26.70;75.40
21294;DHT22;10806;52.250;21.066;2022-08-19T05:55:34;26.70;75.30
21294;DHT22;10806;52.250;21.066;2022-08-19T05:58:00;26.70;75.30
21294;DHT22;10806;52.250;21.066;2022-08-19T06:00:27;26.70;75.30
21294;DHT22;10806;52.250;21.066;2022-08-19T06:02:52;26.70;76.10
21294;DHT22;10806;52.250;21.066;2022-08-19T06:05:21;26.60;75.30
21294;DHT22;10806;52.250;21.066;2022-08-19T06:07:46;26.70;75.30
21294;DHT22;10806;52.250;21.066;2022-08-19T06:10:12;26.70;75.30
21294;DHT22;10806;52.250;21.066;2022-08-19T06:12:39;26.70;75.30
21294;DHT22;10806;52.250;21.066;2022-08-19T06:15:12;26.70;75.30
21294;DHT22;10806;52.250;21.066;2022-08-19T06:17:39;26.70;75.20
21294;DHT22;10806;52.250;21.066;2022-08-19T06:20:09;26.70;75.20
21294;DHT22;10806;52.250;21.066;2022-08-19T06:22:40;26.70;75.20
21294;DHT22;10806;52.250;21.066;2022-08-19T06:25:07;26.70;75.20
21294;DHT22;10806;52.250;21.066;2022-08-19T06:27:34;26.70;75.20
21294;DHT22;10806;52.250;21.066;2022-08-19T06:30:00;26.70;75.20
21294;DHT22;10806;52.250;21.066;2022-08-19T06:32:26;26.70;75.20
21294;DHT22;10806;52.250;21.066;2022-08-19T06:34:51;26.70;75.20
21294;DHT22;10806;52.250;21.066;2022-08-19T06:37:17;26.70;75.20
21294;DHT22;10806;52.250;21.066;2022-08-19T06:39:44;26.70;75.20
21294;DHT22;10806;52.250;21.066;2022-08-19T06:42:11;26.70;75.10
21294;DHT22;10806;52.250;21.066;2022-08-19T06:44:42;26.70;75.10
21294;DHT22;10806;52.250;21.066;2022-08-19T06:47:09;26.70;75.00
21294;DHT22;10806;52.250;21.066;2022-08-19T06:49:35;26.70;75.20
21294;DHT22;10806;52.250;21.066;2022-08-19T06:52:02;26.70;75.40
21294;DHT22;10806;52.250;21.066;2022-08-19T06:54:28;26.70;75.50
21294;DHT22;10806;52.250;21.066;2022-08-19T06:56:55;26.70;75.60
21294;DHT22;10806;52.250;21.066;2022-08-19T06:59:22;26.70;75.60
21294;DHT22;10806;52.250;21.066;2022-08-19T07:01:55;26.80;75.60
21294;DHT22;10806;52.250;21.066;2022-08-19T07:04:27;26.80;75.50
21294;DHT22;10806;52.250;21.066;2022-08-19T07:07:00;26.80;75.60
21294;DHT22;10806;52.250;21.066;2022-08-19T07:09:26;26.80;75.40
21294;DHT22;10806;52.250;21.066;2022-08-19T07:11:53;26.80;75.40
21294;DHT22;10806;52.250;21.066;2022-08-19T07:14:22;26.80;75.40
21294;DHT22;10806;52.250;21.066;2022-08-19T07:16:49;26.80;75.40
21294;DHT22;10806;52.250;21.066;2022-08-19T07:19:16;26.90;75.30
21294;DHT22;10806;52.250;21.066;2022-08-19T07:21:42;26.80;75.20
21294;DHT22;10806;52.250;21.066;2022-08-19T07:24:08;26.80;75.20
21294;DHT22;10806;52.250;21.066;2022-08-19T07:26:39;26.80;75.10
21294;DHT22;10806;52.250;21.066;2022-08-19T07:29:05;26.80;75.10
21294;DHT22;10806;52.250;21.066;2022-08-19T07:31:31;26.80;75.00
21294;DHT22;10806;52.250;21.066;2022-08-19T07:34:03;26.90;75.10
21294;DHT22;10806;52.250;21.066;2022-08-19T07:36:34;26.90;75.00
21294;DHT22;10806;52.250;21.066;2022-08-19T07:39:04;26.90;74.90
21294;DHT22;10806;52.250;21.066;2022-08-19T07:41:30;26.90;74.80
21294;DHT22;10806;52.250;21.066;2022-08-19T07:43:58;26.90;74.80
21294;DHT22;10806;52.250;21.066;2022-08-19T07:46:24;26.90;74.70
21294;DHT22;10806;52.250;21.066;2022-08-19T07:48:51;26.90;74.60
21294;DHT22;10806;52.250;21.066;2022-08-19T07:51:20;26.90;74.50
21294;DHT22;10806;52.250;21.066;2022-08-19T07:53:46;26.80;74.40
21294;DHT22;10806;52.250;21.066;2022-08-19T07:56:13;26.90;74.40
21294;DHT22;10806;52.250;21.066;2022-08-19T07:58:42;26.90;74.30
21294;DHT22;10806;52.250;21.066;2022-08-19T08:01:11;26.90;74.20
21294;DHT22;10806;52.250;21.066;2022-08-19T08:03:37;26.90;74.20
21294;DHT22;10806;52.250;21.066;2022-08-19T08:06:22;26.90;74.20
21294;DHT22;10806;52.250;21.066;2022-08-19T08:09:07;26.90;74.30
21294;DHT22;10806;52.250;21.066;2022-08-19T08:12:12;26.90;74.10
21294;DHT22;10806;52.250;21.066;2022-08-19T08:14:40;26.90;74.20
21294;DHT22;10806;52.250;21.066;2022-08-19T08:17:07;26.90;74.20
21294;DHT22;10806;52.250;21.066;2022-08-19T08:19:33;26.90;74.20
21294;DHT22;10806;52.250;21.066;2022-08-19T08:22:00;26.90;74.20
21294;DHT22;10806;52.250;21.066;2022-08-19T08:24:28;26.90;74.20
21294;DHT22;10806;52.250;21.066;2022-08-19T08:26:57;26.90;74.30
21294;DHT22;10806;52.250;21.066;2022-08-19T08:29:24;26.90;74.20
21294;DHT22;10806;52.250;21.066;2022-08-19T08:31:51;26.90;74.30
21294;DHT22;10806;52.250;21.066;2022-08-19T08:34:16;26.90;74.20
21294;DHT22;10806;52.250;21.066;2022-08-19T08:36:44;26.90;74.30
21294;DHT22;10806;52.250;21.066;2022-08-19T08:39:16;26.90;74.40
21294;DHT22;10806;52.250;21.066;2022-08-19T08:42:17;26.90;74.50
21294;DHT22;10806;52.250;21.066;2022-08-19T08:44:59;26.90;74.30
21294;DHT22;10806;52.250;21.066;2022-08-19T08:47:26;26.90;74.80
21294;DHT22;10806;52.250;21.066;2022-08-19T08:49:56;27.00;75.00
21294;DHT22;10806;52.250;21.066;2022-08-19T08:52:34;27.00;75.10
21294;DHT22;10806;52.250;21.066;2022-08-19T08:55:05;27.00;75.10
21294;DHT22;10806;52.250;21.066;2022-08-19T09:00:34;27.00;75.00
21294;DHT22;10806;52.250;21.066;2022-08-19T09:03:01;27.00;75.20
21294;DHT22;10806;52.250;21.066;2022-08-19T09:05:45;27.00;75.10
21294;DHT22;10806;52.250;21.066;2022-08-19T09:10:53;27.00;75.60
21294;DHT22;10806;52.250;21.066;2022-08-19T09:15:58;27.10;75.80
21294;DHT22;10806;52.250;21.066;2022-08-19T09:18:45;27.10;75.90
21294;DHT22;10806;52.250;21.066;2022-08-19T09:21:13;27.10;75.80
21294;DHT22;10806;52.250;21.066;2022-08-19T09:23:39;27.10;75.70
21294;DHT22;10806;52.250;21.066;2022-08-19T09:26:14;27.10;76.00
21294;DHT22;10806;52.250;21.066;2022-08-19T09:28:46;27.10;76.00
21294;DHT22;10806;52.250;21.066;2022-08-19T09:31:14;27.10;76.00
21294;DHT22;10806;52.250;21.066;2022-08-19T09:33:40;27.10;76.20
21294;DHT22;10806;52.250;21.066;2022-08-19T09:36:11;27.10;76.20
21294;DHT22;10806;52.250;21.066;2022-08-19T09:38:38;27.10;76.20
21294;DHT22;10806;52.250;21.066;2022-08-19T09:41:11;27.10;76.10
21294;DHT22;10806;52.250;21.066;2022-08-19T09:43:39;27.10;76.10
21294;DHT22;10806;52.250;21.066;2022-08-19T09:46:06;27.10;76.40
21294;DHT22;10806;52.250;21.066;2022-08-19T09:48:34;27.10;76.00
21294;DHT22;10806;52.250;21.066;2022-08-19T09:51:12;27.10;76.20
21294;DHT22;10806;52.250;21.066;2022-08-19T09:53:42;27.10;76.10
21294;DHT22;10806;52.250;21.066;2022-08-19T09:56:07;27.10;76.30
21294;DHT22;10806;52.250;21.066;2022-08-19T09:58:34;27.10;76.30
21294;DHT22;10806;52.250;21.066;2022-08-19T10:01:01;27.10;76.30
21294;DHT22;10806;52.250;21.066;2022-08-19T10:03:28;27.10;76.20
21294;DHT22;10806;52.250;21.066;2022-08-19T10:05:56;27.20;77.00
21294;DHT22;10806;52.250;21.066;2022-08-19T10:08:32;27.20;76.90
21294;DHT22;10806;52.250;21.066;2022-08-19T10:10:59;27.20;77.20
21294;DHT22;10806;52.250;21.066;2022-08-19T10:13:27;27.10;77.40
21294;DHT22;10806;52.250;21.066;2022-08-19T10:15:56;27.10;77.20
21294;DHT22;10806;52.250;21.066;2022-08-19T10:18:23;27.20;77.10
21294;DHT22;10806;52.250;21.066;2022-08-19T10:20:50;27.20;77.20
21294;DHT22;10806;52.250;21.066;2022-08-19T10:23:19;27.20;77.60
21294;DHT22;10806;52.250;21.066;2022-08-19T10:25:45;27.10;78.00
21294;DHT22;10806;52.250;21.066;2022-08-19T10:28:11;27.10;78.20
21294;DHT22;10806;52.250;21.066;2022-08-19T10:30:38;27.10;80.40
21294;DHT22;10806;52.250;21.066;2022-08-19T10:33:05;27.20;80.20
21294;DHT22;10806;52.250;21.066;2022-08-19T10:35:31;27.20;79.40
21294;DHT22;10806;52.250;21.066;2022-08-19T10:37:56;27.20;79.60
21294;DHT22;10806;52.250;21.066;2022-08-19T10:40:28;27.20;79.80
21294;DHT22;10806;52.250;21.066;2022-08-19T10:42:54;27.20;79.40
21294;DHT22;10806;52.250;21.066;2022-08-19T10:45:21;27.20;79.00
21294;DHT22;10806;52.250;21.066;2022-08-19T10:47:48;27.20;79.10
21294;DHT22;10806;52.250;21.066;2022-08-19T10:50:14;27.20;79.80
21294;DHT22;10806;52.250;21.066;2022-08-19T10:53:04;27.20;80.30
21294;DHT22;10806;52.250;21.066;2022-08-19T10:55:30;27.20;81.00
21294;DHT22;10806;52.250;21.066;2022-08-19T10:58:18;27.20;81.50
21294;DHT22;10806;52.250;21.066;2022-08-19T11:00:58;27.20;82.10
21294;DHT22;10806;52.250;21.066;2022-08-19T11:03:25;27.20;83.10
21294;DHT22;10806;52.250;21.066;2022-08-19T11:05:59;27.20;83.90
21294;DHT22;10806;52.250;21.066;2022-08-19T11:08:25;27.20;84.20
21294;DHT22;10806;52.250;21.066;2022-08-19T11:10:53;27.20;84.10
21294;DHT22;10806;52.250;21.066;2022-08-19T11:13:24;27.20;84.30
21294;DHT22;10806;52.250;21.066;2022-08-19T11:15:58;27.20;84.70
21294;DHT22;10806;52.250;21.066;2022-08-19T11:18:24;27.20;84.70
21294;DHT22;10806;52.250;21.066;2022-08-19T11:20:49;27.20;84.70
21294;DHT22;10806;52.250;21.066;2022-08-19T11:23:15;27.20;84.80
21294;DHT22;10806;52.250;21.066;2022-08-19T11:25:40;27.20;84.80
21294;DHT22;10806;52.250;21.066;2022-08-19T11:28:06;27.20;84.10
21294;DHT22;10806;52.250;21.066;2022-08-19T11:30:32;27.20;74.20
21294;DHT22;10806;52.250;21.066;2022-08-19T11:32:59;27.20;71.70
21294;DHT22;10806;52.250;21.066;2022-08-19T11:35:26;27.30;69.10
21294;DHT22;10806;52.250;21.066;2022-08-19T11:37:51;27.30;66.70
21294;DHT22;10806;52.250;21.066;2022-08-19T11:40:17;27.40;66.80
21294;DHT22;10806;52.250;21.066;2022-08-19T11:42:43;27.40;65.00
21294;DHT22;10806;52.250;21.066;2022-08-19T11:45:22;27.40;65.10
21294;DHT22;10806;52.250;21.066;2022-08-19T11:47:48;27.40;68.40
21294;DHT22;10806;52.250;21.066;2022-08-19T11:50:15;27.40;69.10
21294;DHT22;10806;52.250;21.066;2022-08-19T11:52:41;27.30;69.50
21294;DHT22;10806;52.250;21.066;2022-08-19T11:55:08;27.30;70.30
21294;DHT22;10806;52.250;21.066;2022-08-19T11:57:34;27.30;71.10
21294;DHT22;10806;52.250;21.066;2022-08-19T11:59:59;27.30;71.70
21294;DHT22;10806;52.250;21.066;2022-08-19T12:02:25;27.30;73.00
21294;DHT22;10806;52.250;21.066;2022-08-19T12:04:50;27.20;72.30
21294;DHT22;10806;52.250;21.066;2022-08-19T12:07:16;27.20;72.30
21294;DHT22;10806;52.250;21.066;2022-08-19T12:09:42;27.20;72.10
21294;DHT22;10806;52.250;21.066;2022-08-19T12:12:09;27.20;73.00
21294;DHT22;10806;52.250;21.066;2022-08-19T12:14:34;27.20;73.30
21294;DHT22;10806;52.250;21.066;2022-08-19T12:17:00;27.20;72.40
21294;DHT22;10806;52.250;21.066;2022-08-19T12:19:27;27.20;72.00
21294;DHT22;10806;52.250;21.066;2022-08-19T12:21:58;27.20;72.40
21294;DHT22;10806;52.250;21.066;2022-08-19T12:24:26;27.20;73.00
21294;DHT22;10806;52.250;21.066;2022-08-19T12:26:51;27.20;72.40
21294;DHT22;10806;52.250;21.066;2022-08-19T12:29:17;27.20;72.80
21294;DHT22;10806;52.250;21.066;2022-08-19T12:31:43;27.20;72.00
21294;DHT22;10806;52.250;21.066;2022-08-19T12:34:08;27.20;73.20
21294;DHT22;10806;52.250;21.066;2022-08-19T12:36:34;27.20;72.10
21294;DHT22;10806;52.250;21.066;2022-08-19T12:39:00;27.20;72.50
21294;DHT22;10806;52.250;21.066;2022-08-19T12:41:26;27.20;73.30
21294;DHT22;10806;52.250;21.066;2022-08-19T12:43:52;27.20;72.80
21294;DHT22;10806;52.250;21.066;2022-08-19T12:46:19;27.20;72.60
21294;DHT22;10806;52.250;21.066;2022-08-19T12:48:45;27.20;72.60
21294;DHT22;10806;52.250;21.066;2022-08-19T12:51:16;27.20;71.20
21294;DHT22;10806;52.250;21.066;2022-08-19T12:53:45;27.20;70.00
21294;DHT22;10806;52.250;21.066;2022-08-19T12:56:11;27.20;69.30
21294;DHT22;10806;52.250;21.066;2022-08-19T12:58:39;27.20;66.70
21294;DHT22;10806;52.250;21.066;2022-08-19T13:01:12;27.20;65.00
21294;DHT22;10806;52.250;21.066;2022-08-19T13:03:38;27.30;64.30
21294;DHT22;10806;52.250;21.066;2022-08-19T13:06:03;27.20;63.80
21294;DHT22;10806;52.250;21.066;2022-08-19T13:08:29;27.30;63.30
21294;DHT22;10806;52.250;21.066;2022-08-19T13:10:55;27.30;62.60
21294;DHT22;10806;52.250;21.066;2022-08-19T13:13:21;27.30;63.10
21294;DHT22;10806;52.250;21.066;2022-08-19T13:15:47;27.20;62.40
21294;DHT22;10806;52.250;21.066;2022-08-19T13:18:13;27.20;62.30
21294;DHT22;10806;52.250;21.066;2022-08-19T13:20:39;27.20;62.50
21294;DHT22;10806;52.250;21.066;2022-08-19T13:23:08;27.20;62.10
21294;DHT22;10806;52.250;21.066;2022-08-19T13:25:34;27.20;63.00
21294;DHT22;10806;52.250;21.066;2022-08-19T13:28:01;27.20;62.00
21294;DHT22;10806;52.250;21.066;2022-08-19T13:30:27;27.20;61.90
21294;DHT22;10806;52.250;21.066;2022-08-19T13:33:11;27.20;61.20
21294;DHT22;10806;52.250;21.066;2022-08-19T13:35:48;27.20;60.40
21294;DHT22;10806;52.250;21.066;2022-08-19T13:38:17;27.20;59.80
21294;DHT22;10806;52.250;21.066;2022-08-19T13:40:43;27.30;59.50
21294;DHT22;10806;52.250;21.066;2022-08-19T13:43:09;27.30;59.20
21294;DHT22;10806;52.250;21.066;2022-08-19T13:45:35;27.30;58.90
21294;DHT22;10806;52.250;21.066;2022-08-19T13:48:03;27.30;58.80
21294;DHT22;10806;52.250;21.066;2022-08-19T13:50:37;27.30;58.60
21294;DHT22;10806;52.250;21.066;2022-08-19T13:53:04;27.30;58.40
21294;DHT22;10806;52.250;21.066;2022-08-19T13:55:29;27.30;58.00
21294;DHT22;10806;52.250;21.066;2022-08-19T13:57:58;27.30;57.90
21294;DHT22;10806;52.250;21.066;2022-08-19T14:00:27;27.30;57.80
21294;DHT22;10806;52.250;21.066;2022-08-19T14:02:55;27.30;57.90
21294;DHT22;10806;52.250;21.066;2022-08-19T14:05:22;27.30;58.20
21294;DHT22;10806;52.250;21.066;2022-08-19T14:07:48;27.30;58.00
21294;DHT22;10806;52.250;21.066;2022-08-19T14:10:14;27.30;57.80
21294;DHT22;10806;52.250;21.066;2022-08-19T14:12:40;27.20;57.70
21294;DHT22;10806;52.250;21.066;2022-08-19T14:15:08;27.30;58.20
21294;DHT22;10806;52.250;21.066;2022-08-19T14:17:41;27.30;57.80
21294;DHT22;10806;52.250;21.066;2022-08-19T14:20:08;27.30;58.00
21294;DHT22;10806;52.250;21.066;2022-08-19T14:22:36;27.30;58.10
21294;DHT22;10806;52.250;21.066;2022-08-19T14:25:03;27.30;59.00
21294;DHT22;10806;52.250;21.066;2022-08-19T14:27:32;27.20;58.50
21294;DHT22;10806;52.250;21.066;2022-08-19T14:29:58;27.20;58.90
21294;DHT22;10806;52.250;21.066;2022-08-19T14:32:23;27.20;58.80
21294;DHT22;10806;52.250;21.066;2022-08-19T14:34:53;27.20;58.80
21294;DHT22;10806;52.250;21.066;2022-08-19T14:37:18;27.20;59.10
21294;DHT22;10806;52.250;21.066;2022-08-19T14:39:44;27.20;59.20
21294;DHT22;10806;52.250;21.066;2022-08-19T14:42:11;27.20;59.30
21294;DHT22;10806;52.250;21.066;2022-08-19T14:44:37;27.20;59.70
21294;DHT22;10806;52.250;21.066;2022-08-19T14:47:03;27.20;59.50
21294;DHT22;10806;52.250;21.066;2022-08-19T14:49:29;27.20;59.30
21294;DHT22;10806;52.250;21.066;2022-08-19T14:51:54;27.20;59.70
21294;DHT22;10806;52.250;21.066;2022-08-19T14:54:20;27.20;59.70
21294;DHT22;10806;52.250;21.066;2022-08-19T14:56:47;27.20;60.00
21294;DHT22;10806;52.250;21.066;2022-08-19T14:59:13;27.20;60.00
21294;DHT22;10806;52.250;21.066;2022-08-19T15:01:39;27.20;59.90
21294;DHT22;10806;52.250;21.066;2022-08-19T15:04:04;27.20;60.20
21294;DHT22;10806;52.250;21.066;2022-08-19T15:06:30;27.20;61.20
21294;DHT22;10806;52.250;21.066;2022-08-19T15:08:57;27.20;60.60
21294;DHT22;10806;52.250;21.066;2022-08-19T15:11:26;27.20;60.10
21294;DHT22;10806;52.250;21.066;2022-08-19T15:13:53;27.20;59.90
21294;DHT22;10806;52.250;21.066;2022-08-19T15:16:20;27.20;60.40
21294;DHT22;10806;52.250;21.066;2022-08-19T15:18:50;27.20;60.90
21294;DHT22;10806;52.250;21.066;2022-08-19T15:21:16;27.20;60.40
21294;DHT22;10806;52.250;21.066;2022-08-19T15:23:43;27.20;60.40
21294;DHT22;10806;52.250;21.066;2022-08-19T15:26:09;27.20;60.50
21294;DHT22;10806;52.250;21.066;2022-08-19T15:28:36;27.20;60.30
21294;DHT22;10806;52.250;21.066;2022-08-19T15:31:02;27.20;60.40
21294;DHT22;10806;52.250;21.066;2022-08-19T15:33:28;27.20;60.20